createdAt,value
2019-02-14T00:01:01.163Z,14.57
2019-02-14T00:03:30.019Z,16.13
2019-02-14T00:05:58.867Z,16.40
2019-02-14T00:08:27.750Z,15.70
2019-02-14T00:10:56.624Z,14.97
2019-02-14T00:13:25.528Z,15.73
2019-02-14T00:15:54.562Z,14.20
2019-02-14T00:18:23.465Z,14.80
2019-02-14T00:20:52.358Z,13.73
2019-02-14T00:23:21.246Z,14.10
2019-02-14T00:25:50.103Z,14.53
2019-02-14T00:28:19.067Z,13.60
2019-02-14T00:30:47.943Z,16.03
2019-02-14T00:33:17.013Z,14.57
2019-02-14T00:35:45.928Z,14.57
2019-02-14T00:38:14.770Z,14.47
2019-02-14T00:40:43.692Z,14.07
2019-02-14T00:43:12.562Z,13.80
2019-02-14T00:45:41.563Z,14.60
2019-02-14T00:48:10.597Z,13.73
2019-02-14T00:50:39.480Z,14.03
2019-02-14T00:53:08.765Z,14.10
2019-02-14T00:55:37.604Z,14.97
2019-02-14T00:58:06.630Z,15.77
2019-02-14T01:00:35.503Z,16.93
2019-02-14T01:03:04.602Z,16.87
2019-02-14T01:05:33.966Z,16.13
2019-02-14T01:08:02.908Z,16.50
2019-02-14T01:10:31.750Z,16.20
2019-02-14T01:13:00.626Z,16.20
2019-02-14T01:15:29.743Z,15.60
2019-02-14T01:17:58.636Z,16.17
2019-02-14T01:20:27.493Z,15.80
2019-02-14T01:22:56.441Z,15.50
2019-02-14T01:25:25.278Z,15.93
2019-02-14T01:27:54.119Z,15.63
2019-02-14T01:30:23.000Z,15.30
2019-02-14T01:32:51.882Z,15.90
2019-02-14T01:35:20.785Z,17.03
2019-02-14T01:37:49.621Z,16.80
2019-02-14T01:40:18.583Z,16.50
2019-02-14T01:42:47.459Z,16.27
2019-02-14T01:45:16.350Z,16.97
2019-02-14T01:47:45.200Z,16.67
2019-02-14T01:50:14.126Z,17.23
2019-02-14T01:52:42.980Z,17.13
2019-02-14T01:55:11.858Z,16.63
2019-02-14T01:57:40.819Z,16.97
2019-02-14T02:00:12.264Z,17.10
2019-02-14T02:02:41.168Z,16.63
2019-02-14T02:05:10.223Z,17.73
2019-02-14T02:07:39.123Z,19.40
2019-02-14T02:10:08.859Z,18.93
2019-02-14T02:12:37.708Z,18.53
2019-02-14T02:15:07.123Z,19.00
2019-02-14T02:17:36.002Z,19.00
2019-02-14T02:20:05.311Z,21.80
2019-02-14T02:22:34.167Z,17.87
2019-02-14T02:25:04.260Z,18.03
2019-02-14T02:27:33.173Z,17.17
2019-02-14T02:30:02.087Z,18.20
2019-02-14T02:32:30.983Z,18.77
2019-02-14T02:34:59.875Z,19.30
2019-02-14T02:37:28.757Z,18.93
2019-02-14T02:39:57.637Z,18.30
2019-02-14T02:42:26.540Z,18.30
2019-02-14T02:44:55.407Z,19.13
2019-02-14T02:47:24.318Z,18.50
2019-02-14T02:49:53.208Z,17.27
2019-02-14T02:52:22.078Z,19.33
2019-02-14T02:54:50.954Z,17.77
2019-02-14T02:57:20.393Z,18.87
2019-02-14T02:59:49.278Z,18.90
2019-02-14T03:02:18.138Z,20.13
2019-02-14T03:04:47.060Z,18.23
2019-02-14T03:07:16.058Z,19.43
2019-02-14T03:09:44.965Z,19.23
2019-02-14T03:12:13.791Z,18.97
2019-02-14T03:14:42.711Z,19.37
2019-02-14T03:17:11.585Z,18.90
2019-02-14T03:19:40.629Z,17.47
2019-02-14T03:22:09.464Z,18.83
2019-02-14T03:24:38.356Z,19.43
2019-02-14T03:27:07.199Z,19.77
2019-02-14T03:29:36.139Z,20.20
2019-02-14T03:32:05.001Z,21.13
2019-02-14T03:34:33.841Z,20.27
2019-02-14T03:37:02.756Z,18.67
2019-02-14T03:39:31.718Z,18.87
2019-02-14T03:42:00.605Z,18.83
2019-02-14T03:44:29.623Z,19.63
2019-02-14T03:46:58.609Z,18.97
2019-02-14T03:49:27.587Z,20.27
2019-02-14T03:51:56.596Z,20.80
2019-02-14T03:54:25.438Z,19.87
2019-02-14T03:56:54.353Z,20.47
2019-02-14T03:59:23.206Z,20.37
2019-02-14T04:01:52.377Z,20.93
2019-02-14T04:04:21.425Z,19.83
2019-02-14T04:06:50.362Z,21.20
2019-02-14T04:09:19.437Z,21.67
2019-02-14T04:11:48.590Z,21.70
2019-02-14T04:14:17.602Z,21.80
2019-02-14T04:16:46.580Z,21.40
2019-02-14T04:19:15.535Z,21.57
2019-02-14T04:21:44.404Z,22.47
2019-02-14T04:24:13.254Z,21.90
2019-02-14T04:26:42.255Z,20.37
2019-02-14T04:29:11.125Z,21.07
2019-02-14T04:31:40.079Z,22.00
2019-02-14T04:34:08.961Z,21.57
2019-02-14T04:36:37.917Z,21.77
2019-02-14T04:39:07.486Z,21.37
2019-02-14T04:41:36.386Z,20.93
2019-02-14T04:44:05.261Z,20.57
2019-02-14T04:46:34.203Z,21.30
2019-02-14T04:49:03.038Z,24.90
2019-02-14T04:51:31.962Z,22.30
2019-02-14T04:54:00.822Z,21.30
2019-02-14T04:56:29.775Z,20.57
2019-02-14T04:58:58.634Z,22.03
2019-02-14T05:01:27.539Z,23.03
2019-02-14T05:03:56.514Z,23.17
2019-02-14T05:06:25.423Z,23.37
2019-02-14T05:08:54.299Z,21.47
2019-02-14T05:11:23.289Z,22.57
2019-02-14T05:13:52.278Z,22.30
2019-02-14T05:16:21.201Z,22.27
2019-02-14T05:18:50.055Z,22.10
2019-02-14T05:21:19.050Z,22.10
2019-02-14T05:23:47.950Z,22.17
2019-02-14T05:26:16.820Z,22.93
2019-02-14T05:28:45.729Z,24.10
2019-02-14T05:31:14.590Z,21.43
2019-02-14T05:33:43.477Z,22.17
2019-02-14T05:36:12.387Z,22.47
2019-02-14T05:38:41.273Z,23.90
2019-02-14T05:41:10.118Z,22.53
2019-02-14T05:43:39.109Z,23.00
2019-02-14T05:46:08.051Z,24.77
2019-02-14T05:48:36.979Z,23.20
2019-02-14T05:51:05.827Z,23.33
2019-02-14T05:53:34.705Z,24.10
2019-02-14T05:56:03.603Z,22.43
2019-02-14T05:58:32.506Z,21.57
2019-02-14T06:01:01.763Z,21.77
2019-02-14T06:03:30.759Z,21.77
2019-02-14T06:05:59.604Z,21.77
2019-02-14T06:08:28.537Z,21.10
2019-02-14T06:10:57.482Z,23.07
2019-02-14T06:13:26.472Z,23.77
2019-02-14T06:15:55.457Z,22.90
2019-02-14T06:18:24.320Z,23.57
2019-02-14T06:20:53.231Z,22.43
2019-02-14T06:23:22.134Z,21.67
2019-02-14T06:25:51.015Z,22.83
2019-02-14T06:28:19.917Z,24.67
2019-02-14T06:30:48.886Z,26.80
2019-02-14T06:33:17.904Z,24.97
2019-02-14T06:35:46.808Z,26.23
2019-02-14T06:38:15.712Z,34.43
2019-02-14T06:40:44.578Z,33.57
2019-02-14T06:43:13.468Z,39.30
2019-02-14T06:45:42.412Z,43.43
2019-02-14T06:48:11.335Z,31.37
2019-02-14T06:50:40.305Z,24.33
2019-02-14T06:53:09.162Z,22.90
2019-02-14T06:55:38.191Z,22.07
2019-02-14T06:58:07.063Z,24.27
2019-02-14T07:00:35.982Z,25.03
2019-02-14T07:03:04.826Z,26.10
2019-02-14T07:05:33.750Z,26.23
2019-02-14T07:08:02.711Z,26.83
2019-02-14T07:10:31.607Z,26.63
2019-02-14T07:13:00.468Z,28.53
2019-02-14T07:15:29.522Z,28.10
2019-02-14T07:17:58.398Z,27.93
2019-02-14T07:20:27.411Z,27.80
2019-02-14T07:22:56.393Z,27.53
2019-02-14T07:25:25.302Z,26.87
2019-02-14T07:27:54.210Z,25.53
2019-02-14T07:30:23.204Z,24.97
2019-02-14T07:32:52.172Z,24.77
2019-02-14T07:35:21.218Z,23.50
2019-02-14T07:37:50.094Z,23.50
2019-02-14T07:40:19.230Z,22.87
2019-02-14T07:42:48.215Z,22.10
2019-02-14T07:45:17.208Z,23.23
2019-02-14T07:47:46.079Z,23.50
2019-02-14T07:50:15.095Z,21.67
2019-02-14T07:52:43.959Z,23.80
2019-02-14T07:55:12.942Z,23.27
2019-02-14T07:57:42.042Z,23.33
2019-02-14T08:00:11.906Z,24.10
2019-02-14T08:02:40.775Z,25.10
2019-02-14T08:05:09.881Z,24.93
2019-02-14T08:07:38.764Z,24.83
2019-02-14T08:10:08.612Z,24.60
2019-02-14T08:12:37.557Z,22.87
2019-02-14T08:15:07.682Z,22.30
2019-02-14T08:17:36.536Z,23.20
2019-02-14T08:20:05.764Z,23.47
2019-02-14T08:22:34.657Z,22.13
2019-02-14T08:25:03.663Z,23.03
2019-02-14T08:27:32.673Z,20.33
2019-02-14T08:30:01.729Z,20.30
2019-02-14T08:32:30.671Z,18.23
2019-02-14T08:34:59.733Z,17.47
2019-02-14T08:37:28.598Z,21.33
2019-02-14T08:39:57.487Z,18.10
2019-02-14T08:42:26.336Z,16.67
2019-02-14T08:44:55.295Z,15.80
2019-02-14T08:47:24.195Z,16.30
2019-02-14T08:49:53.151Z,15.57
2019-02-14T08:52:22.144Z,17.33
2019-02-14T08:54:50.987Z,16.93
2019-02-14T08:57:19.886Z,16.60
2019-02-14T08:59:48.734Z,16.97
2019-02-14T09:02:17.629Z,17.57
2019-02-14T09:04:46.478Z,17.23
2019-02-14T09:07:15.474Z,16.97
2019-02-14T09:09:44.316Z,16.90
2019-02-14T09:12:13.244Z,13.37
2019-02-14T09:14:42.154Z,13.83
2019-02-14T09:17:11.064Z,15.60
2019-02-14T09:19:39.939Z,16.00
2019-02-14T09:22:08.987Z,15.03
2019-02-14T09:24:37.847Z,18.00
2019-02-14T09:27:06.808Z,15.47
2019-02-14T09:29:35.894Z,13.97
2019-02-14T09:32:04.768Z,12.23
2019-02-14T09:34:33.642Z,11.90
2019-02-14T09:37:02.534Z,12.13
2019-02-14T09:39:31.665Z,12.03
2019-02-14T09:42:00.682Z,10.97
2019-02-14T09:44:29.571Z,10.83
2019-02-14T09:46:58.490Z,11.73
2019-02-14T09:49:27.342Z,12.40
2019-02-14T09:51:56.265Z,12.13
2019-02-14T09:54:25.207Z,12.40
2019-02-14T09:56:54.087Z,10.67
2019-02-14T09:59:22.992Z,12.50
2019-02-14T10:01:51.866Z,11.03
2019-02-14T10:04:20.737Z,11.47
2019-02-14T10:06:49.592Z,11.23
2019-02-14T10:09:18.486Z,11.90
2019-02-14T10:11:47.357Z,11.77
2019-02-14T10:14:16.242Z,10.93
2019-02-14T10:16:45.158Z,12.53
2019-02-14T10:19:14.100Z,11.00
2019-02-14T10:21:43.084Z,11.30
2019-02-14T10:24:11.991Z,11.33
2019-02-14T10:26:40.851Z,10.10
2019-02-14T10:29:09.763Z,10.30
2019-02-14T10:31:38.811Z,11.30
2019-02-14T10:34:07.815Z,11.57
2019-02-14T10:36:36.742Z,10.60
2019-02-14T10:39:05.959Z,10.73
2019-02-14T10:41:34.872Z,11.63
2019-02-14T10:44:03.685Z,27.67
2019-02-14T10:46:32.532Z,21.40
2019-02-14T10:49:01.405Z,13.57
2019-02-14T10:51:30.339Z,21.80
2019-02-14T10:53:59.193Z,12.63
2019-02-14T10:56:28.186Z,11.23
2019-02-14T10:58:59.027Z,10.30
2019-02-14T11:01:27.529Z,10.40
2019-02-14T11:03:56.459Z,10.03
2019-02-14T11:06:25.375Z,10.83
2019-02-14T11:08:54.174Z,10.03
2019-02-14T11:11:23.054Z,9.93
2019-02-14T11:13:52.022Z,10.40
2019-02-14T11:16:20.913Z,10.23
2019-02-14T11:18:49.820Z,9.67
2019-02-14T11:21:18.671Z,10.30
2019-02-14T11:23:47.591Z,10.77
2019-02-14T11:26:16.579Z,9.43
2019-02-14T11:28:45.428Z,9.50
2019-02-14T11:31:14.275Z,8.90
2019-02-14T11:33:43.169Z,8.50
2019-02-14T11:36:12.014Z,8.80
2019-02-14T11:38:41.009Z,8.47
2019-02-14T11:41:09.929Z,7.43
2019-02-14T11:43:38.802Z,7.50
2019-02-14T11:46:07.672Z,7.40
2019-02-14T11:48:36.586Z,7.53
2019-02-14T11:51:05.430Z,7.53
2019-02-14T11:53:34.353Z,8.13
2019-02-14T11:56:03.226Z,7.87
2019-02-14T11:58:32.261Z,8.43
2019-02-14T12:01:01.133Z,7.33
2019-02-14T12:03:29.986Z,7.23
2019-02-14T12:05:58.904Z,6.40
2019-02-14T12:08:27.771Z,6.77
2019-02-14T12:10:56.628Z,6.30
2019-02-14T12:13:25.527Z,7.23
2019-02-14T12:15:54.408Z,6.30
2019-02-14T12:18:24.165Z,5.90
2019-02-14T12:20:53.103Z,6.70
2019-02-14T12:23:21.972Z,6.03
2019-02-14T12:25:50.810Z,5.70
2019-02-14T12:28:19.652Z,5.80
2019-02-14T12:30:48.599Z,5.20
2019-02-14T12:33:17.422Z,5.00
2019-02-14T12:35:46.355Z,5.40
2019-02-14T12:38:15.225Z,5.30
2019-02-14T12:40:44.036Z,5.23
2019-02-14T12:43:12.895Z,5.43
2019-02-14T12:45:41.787Z,5.03
2019-02-14T12:48:10.642Z,4.43
2019-02-14T12:50:39.604Z,4.80
2019-02-14T12:53:08.538Z,5.47
2019-02-14T12:55:37.641Z,5.00
2019-02-14T12:58:06.464Z,5.07
2019-02-14T13:00:35.356Z,5.20
2019-02-14T13:03:04.243Z,5.70
2019-02-14T13:05:33.215Z,6.30
2019-02-14T13:08:02.069Z,7.03
2019-02-14T13:10:30.942Z,5.63
2019-02-14T13:12:59.948Z,5.33
2019-02-14T13:15:28.944Z,5.30
2019-02-14T13:17:57.802Z,6.20
2019-02-14T13:20:26.717Z,5.80
2019-02-14T13:22:55.582Z,5.70
2019-02-14T13:25:24.505Z,5.83
2019-02-14T13:27:53.365Z,6.50
2019-02-14T13:30:22.933Z,6.30
2019-02-14T13:32:51.856Z,6.40
2019-02-14T13:35:20.851Z,5.30
2019-02-14T13:37:49.699Z,6.43
2019-02-14T13:40:18.957Z,6.57
2019-02-14T13:42:47.841Z,7.43
2019-02-14T13:45:17.567Z,7.60
2019-02-14T13:47:46.430Z,6.60
2019-02-14T13:50:16.088Z,7.17
2019-02-14T13:52:45.322Z,7.40
2019-02-14T13:55:14.244Z,7.27
2019-02-14T13:57:43.150Z,7.63
2019-02-14T14:00:16.507Z,7.33
2019-02-14T14:02:45.451Z,7.67
2019-02-14T14:05:14.311Z,6.80
2019-02-14T14:07:43.403Z,7.63
2019-02-14T14:10:12.304Z,7.57
2019-02-14T14:12:42.405Z,7.47
2019-02-14T14:15:11.501Z,8.27
2019-02-14T14:17:40.416Z,7.57
2019-02-14T14:20:09.459Z,8.20
2019-02-14T14:22:38.359Z,7.80
2019-02-14T14:25:07.200Z,7.10
2019-02-14T14:27:36.151Z,7.30
2019-02-14T14:30:05.228Z,8.87
2019-02-14T14:32:34.249Z,7.93
2019-02-14T14:35:03.115Z,7.00
2019-02-14T14:37:31.997Z,7.00
2019-02-14T14:40:00.917Z,10.60
2019-02-14T14:42:57.727Z,10.10
2019-02-14T14:45:36.346Z,8.40
2019-02-14T14:48:05.257Z,7.37
2019-02-14T14:50:34.111Z,12.03
2019-02-14T14:53:03.173Z,7.83
2019-02-14T14:55:32.049Z,7.40
2019-02-14T14:58:01.054Z,8.57
2019-02-14T15:00:29.895Z,6.87
2019-02-14T15:02:58.797Z,6.23
2019-02-14T15:05:27.651Z,5.90
2019-02-14T15:07:56.714Z,10.13
2019-02-14T15:10:25.678Z,6.80
2019-02-14T15:12:54.597Z,9.30
2019-02-14T15:15:23.681Z,8.00
2019-02-14T15:17:52.577Z,11.67
2019-02-14T15:20:21.575Z,10.23
2019-02-14T15:22:50.779Z,12.50
2019-02-14T15:25:19.708Z,9.27
2019-02-14T15:27:48.620Z,10.20
2019-02-14T15:30:17.491Z,8.43
2019-02-14T15:32:46.744Z,6.30
2019-02-14T15:35:15.707Z,7.50
2019-02-14T15:37:47.044Z,5.80
2019-02-14T15:40:15.237Z,6.40
2019-02-14T15:42:44.141Z,6.77
2019-02-14T15:45:13.000Z,9.37
2019-02-14T15:47:41.852Z,10.53
2019-02-14T15:50:10.827Z,19.37
2019-02-14T15:52:39.833Z,19.57
2019-02-14T15:55:08.729Z,15.87
2019-02-14T15:57:37.568Z,15.97
2019-02-14T16:00:10.255Z,18.27
2019-02-14T16:02:37.342Z,13.17
2019-02-14T16:05:06.386Z,11.77
2019-02-14T16:07:36.821Z,9.33
2019-02-14T16:10:06.035Z,8.90
2019-02-14T16:12:35.006Z,7.90
2019-02-14T16:15:06.063Z,7.47
2019-02-14T16:17:35.380Z,7.53
2019-02-14T16:20:05.804Z,7.23
2019-02-14T16:22:34.676Z,7.53
2019-02-14T16:25:04.711Z,7.17
2019-02-14T16:27:34.283Z,8.27
2019-02-14T16:30:05.417Z,6.97
2019-02-14T16:32:33.844Z,6.40
2019-02-14T16:35:02.740Z,6.40
2019-02-14T16:37:31.591Z,6.30
2019-02-14T16:40:00.608Z,5.80
2019-02-14T16:42:29.466Z,9.27
2019-02-14T16:44:58.359Z,8.43
2019-02-14T16:47:27.227Z,7.97
2019-02-14T16:49:56.232Z,23.20
2019-02-14T16:52:25.070Z,17.93
2019-02-14T16:54:54.023Z,8.67
2019-02-14T16:57:22.866Z,9.30
2019-02-14T16:59:51.858Z,6.97
2019-02-14T17:02:20.701Z,5.27
2019-02-14T17:04:49.613Z,5.47
2019-02-14T17:07:18.566Z,5.00
2019-02-14T17:09:47.468Z,4.87
2019-02-14T17:12:16.408Z,5.37
2019-02-14T17:14:45.423Z,4.73
2019-02-14T17:17:14.329Z,5.03
2019-02-14T17:19:43.179Z,5.43
2019-02-14T17:22:12.076Z,4.93
2019-02-14T17:24:41.141Z,5.33
2019-02-14T17:27:09.993Z,4.77
2019-02-14T17:29:38.902Z,5.33
2019-02-14T17:32:07.729Z,5.90
2019-02-14T17:34:36.687Z,5.90
2019-02-14T17:37:05.571Z,7.97
2019-02-14T17:39:34.546Z,8.97
2019-02-14T17:42:03.419Z,10.93
2019-02-14T17:44:32.448Z,18.20
2019-02-14T17:47:01.246Z,8.53
2019-02-14T17:49:30.236Z,8.47
2019-02-14T17:51:59.071Z,8.40
2019-02-14T17:54:27.965Z,8.97
2019-02-14T17:56:56.833Z,9.17
2019-02-14T17:59:25.824Z,8.70
2019-02-14T18:01:54.675Z,7.77
2019-02-14T18:04:23.646Z,8.43
2019-02-14T18:06:52.489Z,8.03
2019-02-14T18:09:21.418Z,8.13
2019-02-14T18:11:50.280Z,9.10
2019-02-14T18:14:19.166Z,7.10
2019-02-14T18:16:48.189Z,7.97
2019-02-14T18:19:17.050Z,7.00
2019-02-14T18:21:45.902Z,7.10
2019-02-14T18:24:14.791Z,5.93
2019-02-14T18:26:43.855Z,6.60
2019-02-14T18:29:12.714Z,5.03
2019-02-14T18:31:41.652Z,5.67
2019-02-14T18:34:10.661Z,5.23
2019-02-14T18:36:39.616Z,5.10
2019-02-14T18:39:08.617Z,5.30
2019-02-14T18:41:37.629Z,7.07
2019-02-14T18:44:06.465Z,9.77
2019-02-14T18:46:35.517Z,8.07
2019-02-14T18:49:04.451Z,8.00
2019-02-14T18:51:33.354Z,8.37
2019-02-14T18:54:02.570Z,12.57
2019-02-14T18:56:31.558Z,15.83
2019-02-14T18:59:00.548Z,19.70
2019-02-14T19:01:29.427Z,16.10
2019-02-14T19:03:58.400Z,12.70
2019-02-14T19:06:28.170Z,13.17
2019-02-14T19:08:57.247Z,11.00
2019-02-14T19:11:26.171Z,10.80
2019-02-14T19:13:55.024Z,19.93
2019-02-14T19:16:24.030Z,12.10
2019-02-14T19:18:52.929Z,11.30
2019-02-14T19:21:21.817Z,11.63
2019-02-14T19:23:50.674Z,9.23
2019-02-14T19:26:19.572Z,9.30
2019-02-14T19:28:48.425Z,8.70
2019-02-14T19:31:17.478Z,9.13
2019-02-14T19:33:46.390Z,10.00
2019-02-14T19:36:15.470Z,15.53
2019-02-14T19:38:44.413Z,16.43
2019-02-14T19:41:13.301Z,43.17
2019-02-14T19:43:42.211Z,18.03
2019-02-14T19:46:11.197Z,12.80
2019-02-14T19:48:40.060Z,9.77
2019-02-14T19:51:08.961Z,9.87
2019-02-14T19:53:37.842Z,9.53
2019-02-14T19:56:06.755Z,10.43
2019-02-14T19:58:35.614Z,8.20
2019-02-14T20:01:04.776Z,9.67
2019-02-14T20:03:33.623Z,9.17
2019-02-14T20:06:02.557Z,10.17
2019-02-14T20:08:31.441Z,11.00
2019-02-14T20:11:00.347Z,10.47
2019-02-14T20:13:29.243Z,10.47
2019-02-14T20:15:58.321Z,10.33
2019-02-14T20:18:27.160Z,10.50
2019-02-14T20:20:56.227Z,11.60
2019-02-14T20:23:25.241Z,9.87
2019-02-14T20:25:54.158Z,8.97
2019-02-14T20:28:22.954Z,8.60
2019-02-14T20:30:51.940Z,8.57
2019-02-14T20:33:20.812Z,10.17
2019-02-14T20:35:49.679Z,9.47
2019-02-14T20:38:18.574Z,10.77
2019-02-14T20:40:47.532Z,9.37
2019-02-14T20:43:16.590Z,9.50
2019-02-14T20:45:45.479Z,8.80
2019-02-14T20:48:14.454Z,9.33
2019-02-14T20:50:43.407Z,9.00
2019-02-14T20:53:12.281Z,8.37
2019-02-14T20:55:41.145Z,8.27
2019-02-14T20:58:10.110Z,9.30
2019-02-14T21:00:39.140Z,10.10
2019-02-14T21:03:08.093Z,9.77
2019-02-14T21:05:37.011Z,9.67
2019-02-14T21:08:06.188Z,8.20
2019-02-14T21:10:35.067Z,9.60
2019-02-14T21:13:03.996Z,9.33
2019-02-14T21:15:32.975Z,12.07
2019-02-14T21:18:02.059Z,10.27
2019-02-14T21:20:30.891Z,10.47
2019-02-14T21:22:59.885Z,11.33
2019-02-14T21:25:28.833Z,11.87
2019-02-14T21:27:57.727Z,12.00
2019-02-14T21:30:26.690Z,12.13
2019-02-14T21:32:55.613Z,15.67
2019-02-14T21:35:24.467Z,10.93
2019-02-14T21:37:53.362Z,12.23
2019-02-14T21:40:22.335Z,11.80
2019-02-14T21:42:51.284Z,13.27
2019-02-14T21:45:20.154Z,14.60
2019-02-14T21:47:49.090Z,14.30
2019-02-14T21:50:17.941Z,14.00
2019-02-14T21:52:46.963Z,10.73
2019-02-14T21:55:15.820Z,9.18
2019-02-14T21:57:44.813Z,8.93
2019-02-14T22:00:15.324Z,9.33
2019-02-14T22:02:44.669Z,9.07
2019-02-14T22:05:13.642Z,13.27
2019-02-14T22:07:42.699Z,13.57
2019-02-14T22:10:11.841Z,12.70
2019-02-14T22:12:42.747Z,10.87
2019-02-14T22:15:12.346Z,10.90
2019-02-14T22:17:41.273Z,10.87
2019-02-14T22:20:10.177Z,10.23
2019-02-14T22:22:39.048Z,10.00
2019-02-14T22:25:08.276Z,11.13
2019-02-14T22:27:37.300Z,10.87
2019-02-14T22:30:09.324Z,10.57
2019-02-14T22:32:38.192Z,9.60
2019-02-14T22:35:07.175Z,10.63
2019-02-14T22:37:36.101Z,10.45
2019-02-14T22:40:05.229Z,10.73
2019-02-14T22:42:34.102Z,10.13
2019-02-14T22:45:02.941Z,11.08
2019-02-14T22:47:31.824Z,10.30
2019-02-14T22:50:00.713Z,11.73
2019-02-14T22:52:29.569Z,11.70
2019-02-14T22:54:58.429Z,10.60
2019-02-14T22:57:27.317Z,11.00
2019-02-14T22:59:56.219Z,10.77
2019-02-14T23:02:25.136Z,10.70
2019-02-14T23:04:54.031Z,10.75
2019-02-14T23:07:22.900Z,10.63
2019-02-14T23:09:51.787Z,8.83
2019-02-14T23:12:20.743Z,9.85
2019-02-14T23:14:49.632Z,9.97
2019-02-14T23:17:18.496Z,10.57
2019-02-14T23:19:47.368Z,10.87
2019-02-14T23:22:16.229Z,10.77
2019-02-14T23:24:45.098Z,12.37
2019-02-14T23:27:13.978Z,11.40
2019-02-14T23:29:42.936Z,12.33
2019-02-14T23:32:11.791Z,11.60
2019-02-14T23:34:40.671Z,10.25
2019-02-14T23:37:09.544Z,10.05
2019-02-14T23:39:38.466Z,10.93
2019-02-14T23:42:07.389Z,10.70
2019-02-14T23:44:36.357Z,9.38
2019-02-14T23:47:05.254Z,10.50
2019-02-14T23:49:34.131Z,10.35
2019-02-14T23:52:02.983Z,9.17
2019-02-14T23:54:31.900Z,9.60
2019-02-14T23:57:00.734Z,10.47
2019-02-14T23:59:29.637Z,11.03
